Time;durP1;ratioP1;P1;durP2;ratioP2;P2;SDS_P1;SDS_P2;PMS_P1;PMS_P2;Temp;Humidity;BMP_temperature;BMP_pressure;BME280_temperature;BME280_humidity;BME280_pressure;Samples;Min_cycle;Max_cycle;Signal;HPM_P1;HPM_P2
2021/12/19 00:00:32;;;;;;;50.05;46.22;;;-1.30;99.90;;;;;;4153542;28;20034;-50
2021/12/19 00:12:05;;;;;;;39.47;37.10;;;-1.20;99.90;;;;;;4145560;28;20045;-49
2021/12/19 00:14:07;;;;;;;;;;;-1.30;99.90;;;;;;4160490;28;20521;-46
2021/12/19 00:16:10;;;;;;;37.08;34.83;;;-1.40;99.90;;;;;;4161327;28;19921;-46
2021/12/19 00:18:12;;;;;;;38.10;36.13;;;-1.30;99.90;;;;;;4158494;28;20682;-49
2021/12/19 00:20:14;;;;;;;38.47;36.28;;;-1.20;99.90;;;;;;4161581;28;20045;-46
2021/12/19 00:22:37;;;;;;;41.08;38.33;;;-1.20;99.90;;;;;;4160602;28;20129;-47
2021/12/19 00:24:39;;;;;;;;;;;-1.20;99.90;;;;;;4151647;28;20034;-47
2021/12/19 00:26:41;;;;;;;41.05;38.10;;;-1.10;99.90;;;;;;4160337;28;19967;-47
2021/12/19 00:28:46;;;;;;;46.42;42.78;;;-1.10;99.90;;;;;;4161377;28;20045;-50
2021/12/19 00:30:48;;;;;;;57.85;51.53;;;-1.00;99.90;;;;;;4159043;28;20424;-47
2021/12/19 00:32:50;;;;;;;52.90;47.45;;;-1.00;99.90;;;;;;4161256;28;20046;-49
2021/12/19 00:34:52;;;;;;;53.90;48.33;;;-1.10;99.90;;;;;;4159677;28;20111;-51
2021/12/19 00:36:55;;;;;;;51.53;46.67;;;-1.20;99.90;;;;;;4154220;28;20034;-49
2021/12/19 00:38:57;;;;;;;52.33;47.83;;;-1.30;99.90;;;;;;4160049;28;20041;-45
2021/12/19 00:41:00;;;;;;;46.80;43.50;;;-1.30;99.90;;;;;;4157445;28;20037;-46
2021/12/19 00:43:05;;;;;;;37.90;35.83;;;-1.30;99.90;;;;;;4159308;28;20030;-50
2021/12/19 00:45:20;;;;;;;37.90;35.58;;;-1.20;99.90;;;;;;4161341;28;20520;-50
2021/12/19 00:47:22;;;;;;;46.15;42.28;;;-1.00;99.90;;;;;;4161341;28;20041;-48
2021/12/19 00:49:24;;;;;;;53.17;48.60;;;-1.10;99.90;;;;;;4145099;28;20026;-49
2021/12/19 00:51:27;;;;;;;50.28;46.33;;;-1.20;99.90;;;;;;4158604;28;20072;-47
2021/12/19 00:53:29;;;;;;;49.25;45.25;;;-1.40;99.90;;;;;;4148982;28;20107;-48
2021/12/19 00:55:32;;;;;;;51.03;46.70;;;-1.40;99.90;;;;;;4158225;28;20045;-49
2021/12/19 00:57:34;;;;;;;45.55;42.05;;;-1.40;99.90;;;;;;4160391;28;20042;-49
2021/12/19 00:59:37;;;;;;;41.85;38.90;;;-1.40;99.90;;;;;;4159876;28;20064;-48
2021/12/19 01:01:39;;;;;;;44.95;41.85;;;-1.50;99.90;;;;;;4160211;28;20068;-49
2021/12/19 01:03:47;;;;;;;54.20;49.55;;;-1.50;99.90;;;;;;4156588;28;20042;-46
2021/12/19 01:05:49;;;;;;;56.92;51.45;;;-1.60;99.90;;;;;;4160556;28;20121;-45
2021/12/19 01:07:51;;;;;;;46.60;43.05;;;-1.80;99.90;;;;;;4158524;28;20040;-48
2021/12/19 01:09:53;;;;;;;43.33;40.05;;;-1.90;99.90;;;;;;4160344;28;20551;-48
2021/12/19 01:11:55;;;;;;;40.33;38.05;;;-2.00;99.90;;;;;;4158697;28;20034;-48
2021/12/19 01:13:58;;;;;;;43.22;40.53;;;-2.00;99.90;;;;;;4161047;28;20493;-48
2021/12/19 01:16:02;;;;;;;44.95;41.65;;;-1.90;99.90;;;;;;4159674;28;20513;-49
2021/12/19 01:18:05;;;;;;;49.03;44.30;;;-1.80;99.90;;;;;;4149741;28;20516;-45
2021/12/19 01:20:12;;;;;;;48.20;44.08;;;-1.80;99.90;;;;;;4160144;28;20045;-47
2021/12/19 01:22:14;;;;;;;41.67;38.75;;;-1.70;99.90;;;;;;4147133;28;20072;-47
2021/12/19 01:24:17;;;;;;;47.53;43.35;;;-1.60;99.90;;;;;;4157465;28;20037;-49
2021/12/19 01:26:19;;;;;;;41.50;38.83;;;-1.40;99.90;;;;;;4158915;28;20401;-46
2021/12/19 01:28:21;;;;;;;43.20;40.22;;;-1.40;99.90;;;;;;4158507;28;20041;-46
2021/12/19 01:30:24;;;;;;;40.63;38.15;;;-1.50;99.90;;;;;;4148588;28;20778;-47
2021/12/19 01:32:26;;;;;;;;;;;-1.50;99.90;;;;;;4159125;28;21017;-47
2021/12/19 01:34:28;;;;;;;36.78;34.75;;;-1.50;99.90;;;;;;4160688;28;20270;-46
2021/12/19 01:36:30;;;;;;;37.67;35.47;;;-1.60;99.90;;;;;;4158556;28;20115;-47
2021/12/19 01:38:33;;;;;;;36.47;34.30;;;-1.60;99.90;;;;;;4158735;28;20091;-47
2021/12/19 01:40:35;;;;;;;;;;;-1.70;99.90;;;;;;4159162;28;20044;-47
2021/12/19 01:42:40;;;;;;;39.25;36.72;;;-1.60;99.90;;;;;;4160587;28;20536;-47
2021/12/19 01:44:44;;;;;;;43.63;40.70;;;-1.60;99.90;;;;;;4159487;28;20037;-48
2021/12/19 01:46:46;;;;;;;49.65;45.78;;;-1.80;99.90;;;;;;4163258;28;20037;-49
2021/12/19 01:48:48;;;;;;;47.42;44.03;;;-2.00;99.90;;;;;;4161361;28;20544;-49
2021/12/19 01:50:52;;;;;;;49.10;45.65;;;-2.20;99.90;;;;;;4162495;28;20041;-48
2021/12/19 01:52:54;;;;;;;48.53;44.90;;;-2.30;99.90;;;;;;4161879;28;20072;-50
2021/12/19 01:54:57;;;;;;;49.17;45.58;;;-2.40;99.90;;;;;;4152642;28;20042;-47
2021/12/19 01:56:59;;;;;;;48.28;44.75;;;-2.30;99.90;;;;;;4156583;28;20083;-46
2021/12/19 01:59:02;;;;;;;49.58;45.88;;;-2.20;99.90;;;;;;4163566;28;20033;-48
2021/12/19 02:01:04;;;;;;;;;;;-2.30;99.90;;;;;;4157791;28;20037;-49
2021/12/19 02:03:09;;;;;;;45.80;42.80;;;-2.40;99.90;;;;;;4161887;28;19921;-47
2021/12/19 02:05:17;;;;;;;46.63;43.75;;;-2.50;99.90;;;;;;4156985;28;20041;-47
2021/12/19 02:07:19;;;;;;;46.25;43.15;;;-2.50;99.90;;;;;;4161936;28;20072;-49
2021/12/19 02:09:21;;;;;;;45.42;42.70;;;-2.60;99.90;;;;;;4158544;28;20125;-46
2021/12/19 02:11:23;;;;;;;47.50;43.75;;;-2.50;99.90;;;;;;4164441;28;20057;-47
2021/12/19 02:13:25;;;;;;;47.35;44.33;;;-2.40;99.90;;;;;;4159697;28;20405;-50
2021/12/19 02:15:29;;;;;;;44.33;41.45;;;-2.40;99.90;;;;;;4159409;28;20053;-46
2021/12/19 02:17:31;;;;;;;41.17;38.60;;;-2.20;99.90;;;;;;4154761;28;20068;-50
2021/12/19 02:19:34;;;;;;;45.17;42.05;;;-2.20;99.90;;;;;;4148406;28;20045;-49
2021/12/19 02:21:36;;;;;;;47.80;44.45;;;-2.30;99.90;;;;;;4159727;28;20099;-48
2021/12/19 02:23:38;;;;;;;40.17;37.28;;;-2.30;99.90;;;;;;4164095;28;20050;-49
2021/12/19 02:25:40;;;;;;;48.50;44.47;;;-2.10;99.90;;;;;;4160855;28;20049;-46
2021/12/19 02:27:43;;;;;;;48.53;43.60;;;-2.00;99.90;;;;;;4162062;28;20092;-47
2021/12/19 02:29:45;;;;;;;45.03;41.63;;;-1.80;99.90;;;;;;4153436;28;20033;-49
2021/12/19 02:31:48;;;;;;;44.25;41.05;;;-1.80;99.90;;;;;;4160385;28;20079;-48
2021/12/19 02:36:20;;;;;;;38.15;36.08;;;-1.80;99.90;;;;;;4162370;28;20056;-48
2021/12/19 02:48:16;;;;;;;45.40;42.28;;;-1.90;99.90;;;;;;4161874;28;20041;-47
2021/12/19 02:50:21;;;;;;;47.15;43.67;;;-2.10;99.90;;;;;;4161043;28;20045;-47
2021/12/19 02:52:23;;;;;;;50.67;46.78;;;-2.30;99.90;;;;;;4161540;28;20045;-46
2021/12/19 02:54:26;;;;;;;50.58;46.58;;;-2.50;99.90;;;;;;4157408;28;20080;-48
2021/12/19 02:56:28;;;;;;;49.05;44.92;;;-2.50;99.90;;;;;;4168781;28;20668;-49
2021/12/19 02:58:31;;;;;;;50.25;46.42;;;-2.60;99.90;;;;;;4160773;28;20091;-49
2021/12/19 03:00:33;;;;;;;51.78;47.13;;;-2.60;99.90;;;;;;4161262;28;20115;-47
2021/12/19 03:02:35;;;;;;;50.45;46.97;;;-2.70;99.90;;;;;;4150316;28;20041;-46
2021/12/19 03:04:38;;;;;;;47.35;44.20;;;-2.70;99.90;;;;;;4162250;28;20037;-49
2021/12/19 03:06:48;;;;;;;48.83;45.53;;;-2.60;99.90;;;;;;4158357;28;20036;-46
2021/12/19 03:08:51;;;;;;;47.38;43.47;;;-2.50;99.90;;;;;;4169270;28;20037;-46
2021/12/19 03:20:02;;;;;;;44.50;41.97;;;-2.60;99.90;;;;;;4158737;28;20415;-48
2021/12/19 03:22:04;;;;;;;42.55;39.92;;;-2.60;99.90;;;;;;4161461;28;20038;-48
2021/12/19 03:24:07;;;;;;;40.38;38.22;;;-2.60;99.90;;;;;;4159640;28;20040;-49
2021/12/19 03:26:10;;;;;;;39.95;37.53;;;-2.60;99.90;;;;;;4158563;28;20094;-50
2021/12/19 03:28:13;;;;;;;43.90;41.38;;;-2.60;99.90;;;;;;4156170;28;20088;-49
2021/12/19 03:30:17;;;;;;;39.95;37.70;;;-2.60;99.90;;;;;;4161372;28;20053;-46
2021/12/19 03:32:19;;;;;;;38.03;35.17;;;-2.50;99.90;;;;;;4160596;28;20067;-49
2021/12/19 03:34:21;;;;;;;39.25;37.33;;;-2.60;99.90;;;;;;4162380;28;20042;-48
2021/12/19 03:36:23;;;;;;;40.13;37.95;;;-2.50;99.90;;;;;;4159184;28;20138;-48
2021/12/19 03:38:33;;;;;;;39.33;37.22;;;-2.50;99.90;;;;;;4157038;28;20045;-47
2021/12/19 03:40:39;;;;;;;42.85;40.35;;;-2.40;99.90;;;;;;4157846;28;20091;-46
2021/12/19 03:42:47;;;;;;;45.70;43.20;;;-2.50;99.90;;;;;;4147829;28;20038;-49
2021/12/19 03:44:49;;;;;;;39.97;37.40;;;-2.50;99.90;;;;;;4159179;28;20033;-50
2021/12/19 03:46:52;;;;;;;46.05;42.70;;;-2.40;99.90;;;;;;4161784;28;20041;-50
2021/12/19 03:48:54;;;;;;;45.15;42.42;;;-2.50;99.90;;;;;;4160716;28;20057;-47
2021/12/19 03:50:57;;;;;;;47.10;43.90;;;-2.50;99.90;;;;;;4160405;28;20045;-48
2021/12/19 03:53:00;;;;;;;45.80;42.72;;;-2.50;99.90;;;;;;4160727;28;20775;-50
2021/12/19 03:55:03;;;;;;;47.65;44.75;;;-2.50;99.90;;;;;;4151521;28;20034;-48
2021/12/19 03:57:05;;;;;;;45.63;42.83;;;-2.50;99.90;;;;;;4156599;28;20575;-49
2021/12/19 03:59:07;;;;;;;48.28;45.08;;;-2.70;99.90;;;;;;4159451;28;20049;-47
2021/12/19 04:01:10;;;;;;;48.58;45.72;;;-2.80;99.90;;;;;;4156616;28;20032;-50
2021/12/19 04:03:18;;;;;;;39.03;36.80;;;-2.90;99.90;;;;;;4160840;28;20079;-49
2021/12/19 04:05:22;;;;;;;42.03;39.42;;;-2.80;99.90;;;;;;4160391;28;20527;-47
2021/12/19 04:07:25;;;;;;;39.50;37.50;;;-2.70;99.90;;;;;;4156412;28;20437;-49
2021/12/19 04:09:27;;;;;;;36.60;35.10;;;-2.60;99.90;;;;;;4159671;28;20045;-50
2021/12/19 04:11:30;;;;;;;39.55;37.67;;;-2.50;99.90;;;;;;4161254;28;20041;-49
2021/12/19 04:13:32;;;;;;;36.83;35.08;;;-2.50;99.90;;;;;;4158485;28;20030;-50
2021/12/19 04:15:35;;;;;;;43.35;41.08;;;-2.50;99.90;;;;;;4160738;28;20157;-48
2021/12/19 04:17:38;;;;;;;43.90;41.00;;;-2.50;99.90;;;;;;4157725;28;20044;-49
2021/12/19 04:19:40;;;;;;;48.53;45.05;;;-2.60;99.90;;;;;;4158612;28;20076;-47
2021/12/19 04:21:42;;;;;;;49.70;46.28;;;-2.70;99.90;;;;;;4155012;28;20033;-47
2021/12/19 04:23:44;;;;;;;47.30;44.47;;;-2.90;99.90;;;;;;4149379;28;20042;-46
2021/12/19 04:25:47;;;;;;;45.53;42.55;;;-2.90;99.90;;;;;;4152160;28;20052;-48
2021/12/19 04:27:49;;;;;;;44.38;41.78;;;-2.90;99.90;;;;;;4161162;28;20045;-48
2021/12/19 04:29:53;;;;;;;45.17;42.40;;;-3.10;99.90;;;;;;4160496;28;20040;-47
2021/12/19 04:31:56;;;;;;;43.20;40.65;;;-3.00;99.90;;;;;;4159999;28;20509;-50
2021/12/19 04:33:58;;;;;;;;;;;-2.90;99.90;;;;;;4154361;28;20103;-47
2021/12/19 04:36:04;;;;;;;50.47;46.95;;;-2.80;99.90;;;;;;4158680;28;19921;-46
2021/12/19 04:40:28;;;;;;;46.22;43.20;;;-2.90;99.90;;;;;;4160450;28;20037;-47
2021/12/19 04:56:19;;;;;;;45.55;42.83;;;-2.70;99.90;;;;;;4159547;28;20029;-48
2021/12/19 05:00:43;;;;;;;46.00;43.20;;;-2.60;99.90;;;;;;4161170;28;20037;-49
2021/12/19 05:03:04;;;;;;;46.50;43.15;;;-2.70;99.90;;;;;;4151953;28;20045;-47
2021/12/19 05:14:16;;;;;;;45.08;42.33;;;-3.00;99.90;;;;;;4153839;28;20602;-50
2021/12/19 05:16:19;;;;;;;42.60;40.17;;;-2.90;99.90;;;;;;4158840;28;20041;-48
2021/12/19 05:18:25;;;;;;;41.55;39.05;;;-2.90;99.90;;;;;;4159883;28;20037;-49
2021/12/19 05:20:29;;;;;;;39.85;37.88;;;-2.80;99.90;;;;;;4160149;28;20525;-47
2021/12/19 05:22:33;;;;;;;38.95;37.53;;;-2.70;99.90;;;;;;4164490;28;20046;-47
2021/12/19 05:25:00;;;;;;;38.78;37.08;;;-2.60;99.90;;;;;;4162510;28;20090;-47
2021/12/19 05:27:08;;;;;;;39.95;38.10;;;-2.50;99.90;;;;;;4158992;28;20075;-50
2021/12/19 05:29:10;;;;;;;41.17;38.88;;;-2.50;99.90;;;;;;4164439;28;20034;-48
2021/12/19 05:31:13;;;;;;;41.63;39.50;;;-2.60;99.90;;;;;;4152518;28;20472;-48
2021/12/19 05:33:16;;;;;;;43.83;41.22;;;-2.60;99.90;;;;;;4162837;28;20038;-47
2021/12/19 05:35:26;;;;;;;43.80;40.78;;;-2.80;99.90;;;;;;4163178;28;20121;-47
2021/12/19 05:46:53;;;;;;;44.70;42.25;;;-3.20;99.90;;;;;;4162904;28;20045;-48
2021/12/19 05:48:56;;;;;;;42.25;40.38;;;-3.20;99.90;;;;;;4159352;28;20536;-49
2021/12/19 05:50:58;;;;;;;41.60;39.65;;;-3.20;99.90;;;;;;4163484;28;20045;-48
2021/12/19 05:53:00;;;;;;;43.03;40.53;;;-3.20;99.90;;;;;;4162980;28;20038;-48
2021/12/19 05:55:03;;;;;;;42.28;40.33;;;-3.20;99.90;;;;;;4162172;28;20041;-48
2021/12/19 05:57:05;;;;;;;42.00;39.72;;;-3.00;99.90;;;;;;4161258;28;20050;-47
2021/12/19 05:59:08;;;;;;;40.40;38.40;;;-3.00;99.90;;;;;;4162066;28;20565;-50
2021/12/19 06:01:11;;;;;;;42.22;40.33;;;-3.10;99.90;;;;;;4162947;28;20053;-47
2021/12/19 06:03:13;;;;;;;44.00;41.47;;;-3.00;99.90;;;;;;4160898;28;20044;-46
2021/12/19 06:05:15;;;;;;;44.88;42.53;;;-3.10;99.90;;;;;;4159977;28;20099;-49
2021/12/19 06:07:17;;;;;;;43.53;40.97;;;-3.20;99.90;;;;;;4164234;28;20049;-50
2021/12/19 06:09:19;;;;;;;45.25;42.47;;;-3.10;99.90;;;;;;4157687;28;20041;-48
2021/12/19 06:11:22;;;;;;;48.33;45.60;;;-3.10;99.90;;;;;;4159572;28;20109;-47
2021/12/19 06:13:24;;;;;;;45.05;42.58;;;-3.20;99.90;;;;;;4152606;28;20037;-49
2021/12/19 06:15:26;;;;;;;42.97;40.58;;;-3.20;99.90;;;;;;4163728;28;20038;-48
2021/12/19 06:17:28;;;;;;;45.97;43.55;;;-3.20;99.90;;;;;;4161044;28;20037;-46
2021/12/19 06:19:36;;;;;;;44.40;41.78;;;-3.20;99.90;;;;;;4162169;28;20042;-48
2021/12/19 06:21:38;;;;;;;43.50;40.95;;;-3.20;99.90;;;;;;4160571;28;20045;-49
2021/12/19 06:23:40;;;;;;;45.53;42.60;;;-3.20;99.90;;;;;;4164368;28;20057;-46
2021/12/19 06:25:45;;;;;;;45.60;42.92;;;-3.30;99.90;;;;;;4153258;28;20083;-47
2021/12/19 06:27:48;;;;;;;44.35;42.20;;;-3.30;99.90;;;;;;4158137;28;20034;-49
2021/12/19 06:29:50;;;;;;;42.25;40.08;;;-3.40;99.90;;;;;;4151291;28;20037;-49
2021/12/19 06:31:52;;;;;;;44.05;41.78;;;-3.50;99.90;;;;;;4162994;28;20045;-49
2021/12/19 06:33:54;;;;;;;41.42;39.38;;;-3.60;99.90;;;;;;4160694;28;20037;-48
2021/12/19 06:35:56;;;;;;;;;;;-3.60;99.90;;;;;;4163105;28;20061;-49
2021/12/19 06:37:59;;;;;;;45.85;43.33;;;-3.70;99.90;;;;;;4158060;28;19929;-46
2021/12/19 06:40:03;;;;;;;45.88;43.22;;;-3.70;99.90;;;;;;4164331;28;20121;-49
2021/12/19 06:42:07;;;;;;;44.33;41.92;;;-3.60;99.90;;;;;;4163111;28;20060;-46
2021/12/19 06:44:09;;;;;;;46.80;43.85;;;-3.70;99.90;;;;;;4163792;28;20103;-48
2021/12/19 06:46:12;;;;;;;45.60;43.03;;;-3.60;99.90;;;;;;4161675;28;20667;-50
2021/12/19 06:48:14;;;;;;;48.15;45.08;;;-3.50;99.90;;;;;;4164736;28;20041;-47
2021/12/19 06:50:18;;;;;;;47.20;44.22;;;-3.50;99.90;;;;;;4162552;28;20034;-50
2021/12/19 06:52:20;;;;;;;45.80;42.97;;;-3.50;99.90;;;;;;4162836;28;20075;-49
2021/12/19 06:54:22;;;;;;;43.45;41.17;;;-3.40;99.90;;;;;;4162121;28;20041;-49
2021/12/19 06:56:25;;;;;;;37.58;35.85;;;-3.50;99.90;;;;;;4163668;28;20073;-50
2021/12/19 06:58:27;;;;;;;;;;;-3.50;99.90;;;;;;4163453;28;20401;-48
2021/12/19 07:00:29;;;;;;;44.47;42.65;;;-3.50;99.90;;;;;;4161857;28;19925;-48
2021/12/19 07:02:31;;;;;;;39.60;38.10;;;-3.40;99.90;;;;;;4160682;28;20041;-47
2021/12/19 07:04:34;;;;;;;38.70;36.97;;;-3.30;99.90;;;;;;4159655;28;20034;-47
2021/12/19 07:06:36;;;;;;;38.53;36.90;;;-3.30;99.90;;;;;;4159533;28;20061;-47
2021/12/19 07:08:38;;;;;;;40.47;38.42;;;-3.40;99.90;;;;;;4159378;28;20045;-49
2021/12/19 07:10:40;;;;;;;40.03;38.22;;;-3.30;99.90;;;;;;4164204;28;20037;-51
2021/12/19 07:12:42;;;;;;;41.15;39.40;;;-3.30;99.90;;;;;;4160621;28;20037;-49
2021/12/19 07:14:44;;;;;;;40.65;39.05;;;-3.20;99.90;;;;;;4163626;28;20033;-48
2021/12/19 07:16:46;;;;;;;39.35;37.55;;;-3.20;99.90;;;;;;4160976;28;20103;-50
2021/12/19 07:18:48;;;;;;;40.58;38.78;;;-3.20;99.90;;;;;;4158825;28;20044;-50
2021/12/19 07:20:51;;;;;;;39.53;37.65;;;-3.00;99.90;;;;;;4157640;28;20505;-50
2021/12/19 07:22:54;;;;;;;37.90;36.20;;;-3.00;99.90;;;;;;4164664;28;20076;-51
2021/12/19 07:24:56;;;;;;;40.80;38.55;;;-2.90;99.90;;;;;;4160207;28;20071;-50
2021/12/19 07:26:58;;;;;;;45.97;42.58;;;-3.00;99.90;;;;;;4162988;28;20049;-47
2021/12/19 07:29:00;;;;;;;49.17;45.88;;;-3.30;99.90;;;;;;4159964;28;20037;-51
2021/12/19 07:31:03;;;;;;;49.67;46.40;;;-3.40;99.90;;;;;;4161171;28;20100;-47
2021/12/19 07:33:07;;;;;;;48.58;45.53;;;-3.30;99.90;;;;;;4157463;28;20046;-49
2021/12/19 07:35:10;;;;;;;41.78;39.72;;;-3.00;99.90;;;;;;4149036;28;20124;-49
2021/12/19 07:37:13;;;;;;;41.97;39.83;;;-3.00;99.90;;;;;;4155807;28;20038;-47
2021/12/19 07:41:26;;;;;;;38.55;37.10;;;-2.90;99.90;;;;;;4160212;28;20064;-46
2021/12/19 07:43:28;;;;;;;35.33;34.13;;;-2.90;99.90;;;;;;4162458;28;20087;-49
2021/12/19 07:45:31;;;;;;;51.72;47.15;;;-2.80;99.90;;;;;;4157804;28;20513;-47
2021/12/19 07:47:34;;;;;;;42.58;39.97;;;-2.80;99.90;;;;;;4156855;28;20418;-49
2021/12/19 07:49:36;;;;;;;38.58;36.90;;;-2.70;99.90;;;;;;4156479;28;20044;-49
2021/12/19 07:51:38;;;;;;;38.08;35.90;;;-2.70;99.90;;;;;;4156637;28;20581;-50
2021/12/19 07:53:40;;;;;;;46.05;42.92;;;-2.60;99.90;;;;;;4155040;28;20078;-49
2021/12/19 07:55:43;;;;;;;41.78;39.53;;;-2.50;99.90;;;;;;4162843;28;20129;-47
2021/12/19 07:57:46;;;;;;;40.85;38.90;;;-2.50;99.90;;;;;;4157108;28;20046;-49
2021/12/19 07:59:48;;;;;;;41.58;39.45;;;-2.50;99.90;;;;;;4163818;28;20099;-47
2021/12/19 08:01:50;;;;;;;49.80;46.35;;;-2.60;99.90;;;;;;4160238;28;20111;-50
2021/12/19 08:03:52;;;;;;;40.55;38.85;;;-2.60;99.90;;;;;;4163543;28;20046;-48
2021/12/19 08:05:54;;;;;;;43.17;40.78;;;-2.70;99.90;;;;;;4160063;28;20029;-50
2021/12/19 08:08:01;;;;;;;36.65;35.13;;;-2.60;99.90;;;;;;4163481;28;20292;-47
2021/12/19 08:11:39;;;;;;;42.47;39.85;;;-2.60;99.90;;;;;;4159198;28;20060;-48
2021/12/19 08:12:35;;;;;;;38.67;36.88;;;-2.50;99.90;;;;;;4162073;28;20044;-46
2021/12/19 08:14:37;;;;;;;37.13;35.72;;;-2.40;99.90;;;;;;4159612;28;20543;-49
2021/12/19 08:16:41;;;;;;;39.28;37.58;;;-2.30;99.90;;;;;;4154294;28;20493;-49
2021/12/19 08:18:43;;;;;;;42.35;40.08;;;-2.10;99.90;;;;;;4154869;28;20042;-49
2021/12/19 08:20:45;;;;;;;43.95;41.28;;;-2.00;99.90;;;;;;4162348;28;20107;-50
2021/12/19 08:22:49;;;;;;;50.00;45.92;;;-1.80;99.90;;;;;;4157467;28;20080;-48
2021/12/19 08:24:51;;;;;;;44.08;40.95;;;-1.80;99.90;;;;;;4162552;28;20505;-48
2021/12/19 08:26:53;;;;;;;;;;;-1.70;99.90;;;;;;4153776;28;20044;-51
2021/12/19 08:28:56;;;;;;;44.58;41.90;;;-1.60;99.90;;;;;;4161446;28;19932;-50
2021/12/19 08:30:58;;;;;;;41.53;38.70;;;-1.40;99.90;;;;;;4161142;28;20596;-45
2021/12/19 08:33:00;;;;;;;50.33;45.67;;;-1.20;99.90;;;;;;4161237;28;20049;-46
2021/12/19 08:35:04;;;;;;;45.42;42.17;;;-1.20;99.90;;;;;;4161865;28;20171;-46
2021/12/19 08:37:07;;;;;;;49.65;45.42;;;-1.40;99.90;;;;;;4159772;28;20050;-47
2021/12/19 08:39:11;;;;;;;51.67;47.90;;;-1.50;99.90;;;;;;4156234;28;20041;-47
2021/12/19 08:41:14;;;;;;;50.58;46.90;;;-1.50;99.90;;;;;;4163518;28;20037;-47
2021/12/19 08:43:16;;;;;;;73.93;61.97;;;-1.40;99.90;;;;;;4161005;28;20044;-47
2021/12/19 08:45:20;;;;;;;67.22;59.88;;;-1.30;99.90;;;;;;4159847;28;20045;-48
2021/12/19 08:47:22;;;;;;;67.43;60.65;;;-1.30;99.90;;;;;;4159390;28;20565;-45
2021/12/19 08:49:25;;;;;;;64.53;58.53;;;-1.20;99.90;;;;;;4159753;28;20042;-48
2021/12/19 08:51:27;;;;;;;67.25;60.95;;;-1.10;99.90;;;;;;4149323;28;20041;-46
2021/12/19 08:53:29;;;;;;;60.30;53.00;;;-0.90;99.90;;;;;;4166124;28;20038;-49
2021/12/19 08:55:31;;;;;;;45.70;41.13;;;-0.90;99.90;;;;;;4155026;28;20038;-48
2021/12/19 08:57:33;;;;;;;35.20;32.80;;;-0.80;99.90;;;;;;4165026;28;20041;-50
2021/12/19 08:59:36;;;;;;;32.03;29.55;;;-0.60;99.90;;;;;;4163197;28;20513;-47
2021/12/19 09:01:38;;;;;;;33.63;31.58;;;-0.50;99.90;;;;;;4163867;28;20041;-48
2021/12/19 09:03:40;;;;;;;45.08;40.40;;;-0.50;99.90;;;;;;4163352;28;20041;-49
2021/12/19 09:05:42;;;;;;;28.27;27.23;;;-0.50;99.90;;;;;;4166162;28;20124;-47
2021/12/19 09:07:44;;;;;;;57.47;49.97;;;-0.40;99.90;;;;;;4162025;28;20038;-50
2021/12/19 09:09:48;;;;;;;57.65;51.30;;;-0.40;99.90;;;;;;4165771;28;20429;-48
2021/12/19 09:11:52;;;;;;;60.55;54.58;;;-0.50;99.90;;;;;;4163148;28;20041;-49
2021/12/19 09:13:54;;;;;;;60.42;55.10;;;-0.50;99.90;;;;;;4165694;28;20042;-49
2021/12/19 09:15:57;;;;;;;54.55;49.55;;;-0.40;99.90;;;;;;4164621;28;20206;-50
2021/12/19 09:17:59;;;;;;;70.45;62.05;;;-0.30;99.90;;;;;;4163775;28;20397;-47
2021/12/19 09:20:04;;;;;;;51.75;46.95;;;-0.20;99.90;;;;;;4159143;28;20084;-47
2021/12/19 09:22:07;;;;;;;65.88;59.72;;;-0.10;99.90;;;;;;4165437;28;20248;-50
2021/12/19 09:24:09;;;;;;;42.97;39.45;;;-0.10;99.90;;;;;;4165196;28;20041;-49
2021/12/19 09:26:11;;;;;;;42.58;38.58;;;0.00;99.90;;;;;;4162719;28;20040;-48
2021/12/19 09:28:13;;;;;;;39.70;36.10;;;0.10;99.90;;;;;;4165280;28;20038;-48
2021/12/19 09:30:16;;;;;;;57.00;45.25;;;0.20;99.90;;;;;;4163235;28;20033;-47
2021/12/19 09:32:19;;;;;;;60.40;46.70;;;0.40;99.90;;;;;;4165811;28;20064;-50
2021/12/19 09:34:21;;;;;;;;;;;0.50;99.90;;;;;;4162238;28;20079;-50
2021/12/19 09:36:24;;;;;;;39.80;35.38;;;0.50;99.90;;;;;;4160074;28;20397;-48
2021/12/19 09:38:27;;;;;;;55.40;49.42;;;0.60;99.90;;;;;;4162036;28;20087;-48
2021/12/19 09:40:34;;;;;;;32.88;30.00;;;0.70;99.90;;;;;;4165270;28;20099;-47
2021/12/19 09:42:37;;;;;;;27.30;25.10;;;0.90;99.90;;;;;;4163183;28;20414;-47
2021/12/19 09:44:40;;;;;;;25.33;23.75;;;1.00;99.90;;;;;;4164946;28;20406;-50
2021/12/19 09:46:44;;;;;;;19.75;18.55;;;1.20;99.90;;;;;;4161737;28;20049;-48
2021/12/19 09:48:48;;;;;;;21.98;20.17;;;1.30;99.90;;;;;;4152826;28;20038;-49
2021/12/19 09:50:51;;;;;;;18.50;17.13;;;1.30;99.90;;;;;;4163232;28;20087;-47
2021/12/19 09:52:53;;;;;;;13.77;13.10;;;1.40;99.90;;;;;;4149595;28;20494;-48
2021/12/19 09:54:55;;;;;;;13.85;13.20;;;1.60;99.90;;;;;;4160983;28;20436;-47
2021/12/19 09:56:58;;;;;;;8.40;8.05;;;1.70;99.90;;;;;;4165182;28;20049;-47
2021/12/19 09:59:00;;;;;;;;;;;1.90;99.90;;;;;;4162799;28;20037;-50
2021/12/19 10:01:05;;;;;;;8.75;8.55;;;2.10;99.90;;;;;;4160207;28;19948;-49
2021/12/19 10:03:11;;;;;;;13.38;12.27;;;2.30;99.90;;;;;;4160270;28;20029;-49
2021/12/19 10:05:23;;;;;;;18.05;16.75;;;2.50;99.90;;;;;;4151310;28;20411;-47
2021/12/19 10:07:29;;;;;;;16.90;15.55;;;2.60;99.90;;;;;;4162973;28;20539;-51
2021/12/19 10:09:31;;;;;;;12.55;12.02;;;2.80;99.90;;;;;;4148573;28;20037;-49
2021/12/19 10:11:59;;;;;;;11.52;11.13;;;3.00;99.90;;;;;;4161725;28;20084;-48
2021/12/19 10:14:01;;;;;;;11.30;10.80;;;3.10;99.90;;;;;;4160478;28;20034;-48
2021/12/19 10:16:24;;;;;;;9.13;8.73;;;3.30;99.90;;;;;;4164191;28;20108;-49
2021/12/19 10:18:26;;;;;;;7.47;7.22;;;3.50;99.90;;;;;;4161127;28;20053;-47
2021/12/19 10:20:49;;;;;;;16.88;15.32;;;3.70;99.90;;;;;;4164864;28;20046;-46
2021/12/19 10:22:51;;;;;;;7.35;7.15;;;3.80;99.90;;;;;;4162937;28;20092;-51
2021/12/19 10:24:58;;;;;;;8.45;8.25;;;3.90;99.80;;;;;;4163629;28;20041;-48
2021/12/19 10:27:02;;;;;;;14.65;13.57;;;4.10;99.90;;;;;;4158649;28;20109;-47
2021/12/19 10:29:04;;;;;;;12.95;12.20;;;4.30;99.90;;;;;;4158958;28;20063;-49
2021/12/19 10:31:10;;;;;;;13.25;12.50;;;4.30;99.70;;;;;;4155589;28;20096;-50
2021/12/19 10:33:16;;;;;;;10.82;10.23;;;4.50;99.90;;;;;;4161518;28;20091;-49
2021/12/19 10:35:22;;;;;;;13.57;12.60;;;4.60;99.90;;;;;;4161344;28;20033;-49
2021/12/19 10:37:34;;;;;;;13.32;12.43;;;4.60;99.70;;;;;;4161263;28;20029;-47
2021/12/19 10:39:39;;;;;;;13.98;12.90;;;4.70;99.70;;;;;;4159021;28;20044;-48
2021/12/19 10:41:42;;;;;;;10.55;9.95;;;4.90;99.50;;;;;;4159821;28;20068;-48
2021/12/19 10:44:00;;;;;;;17.27;15.70;;;5.10;99.50;;;;;;4158968;28;20430;-50
2021/12/19 10:46:05;;;;;;;9.85;9.45;;;5.20;98.80;;;;;;4162448;28;20041;-50
2021/12/19 10:48:11;;;;;;;10.70;10.10;;;5.30;98.70;;;;;;4159737;28;20136;-47
2021/12/19 10:50:13;;;;;;;9.10;8.00;;;5.40;98.60;;;;;;4146367;28;20049;-49
2021/12/19 10:52:33;;;;;;;13.48;12.20;;;5.50;98.40;;;;;;4161295;28;20056;-47
2021/12/19 10:54:36;;;;;;;11.25;10.57;;;5.70;98.40;;;;;;4161256;28;20037;-50
2021/12/19 10:56:40;;;;;;;8.82;8.13;;;5.80;98.20;;;;;;4158037;28;20049;-47
2021/12/19 10:58:56;;;;;;;13.38;12.18;;;6.30;98.80;;;;;;4160333;28;20596;-50
2021/12/19 11:01:07;;;;;;;5.35;5.15;;;6.70;96.20;;;;;;4160810;28;20037;-50
2021/12/19 11:03:11;;;;;;;6.50;6.20;;;6.70;92.60;;;;;;4160338;28;20045;-51
2021/12/19 11:05:40;;;;;;;21.88;19.58;;;6.80;91.70;;;;;;4152145;28;20041;-50
2021/12/19 11:07:59;;;;;;;9.27;8.57;;;6.90;93.00;;;;;;4158661;28;20060;-48
2021/12/19 11:10:25;;;;;;;13.55;12.30;;;7.10;91.90;;;;;;4157918;28;20041;-49
2021/12/19 11:12:27;;;;;;;12.15;11.35;;;7.30;91.90;;;;;;4158531;28;20030;-51
2021/12/19 11:14:39;;;;;;;12.35;11.48;;;7.30;92.20;;;;;;4155939;28;20037;-49
2021/12/19 11:16:41;;;;;;;58.08;42.45;;;7.40;92.20;;;;;;4162247;28;20041;-49
2021/12/19 11:18:44;;;;;;;30.85;24.98;;;7.60;92.00;;;;;;4160339;28;20508;-51
2021/12/19 11:20:46;;;;;;;8.05;7.78;;;7.70;91.60;;;;;;4162935;28;20033;-48
2021/12/19 11:22:48;;;;;;;5.68;5.57;;;7.70;91.10;;;;;;4161815;28;20425;-51
2021/12/19 11:24:56;;;;;;;7.35;6.75;;;7.90;91.10;;;;;;4161905;28;20069;-50
2021/12/19 11:27:04;;;;;;;20.98;17.25;;;8.40;92.10;;;;;;4162552;28;20127;-48
2021/12/19 11:29:08;;;;;;;15.05;13.80;;;8.40;90.50;;;;;;4163225;28;20041;-50
2021/12/19 11:31:11;;;;;;;12.90;11.60;;;8.40;90.50;;;;;;4162304;28;20041;-50
2021/12/19 11:33:28;;;;;;;16.67;15.10;;;8.50;90.40;;;;;;4162170;28;20041;-47
2021/12/19 11:35:36;;;;;;;10.15;9.35;;;8.60;90.00;;;;;;4160473;28;20065;-50
2021/12/19 11:37:45;;;;;;;8.98;8.40;;;8.50;89.40;;;;;;4147246;28;20053;-47
2021/12/19 11:39:53;;;;;;;8.52;7.93;;;8.50;88.80;;;;;;4157065;28;20529;-49
2021/12/19 11:42:06;;;;;;;7.97;7.55;;;8.60;90.30;;;;;;4157170;28;20861;-50
2021/12/19 11:44:28;;;;;;;5.22;4.97;;;8.90;88.70;;;;;;4157824;28;20045;-48